sensor_id;sensor_type;location;lat;lon;timestamp;pressure;altitude;pressure_sealevel;temperature;humidity
4085;BME280;2057;50.858;6.572;2023-04-23T00:00:22;99621.31;;;10.94;100.00
4085;BME280;2057;50.858;6.572;2023-04-23T00:02:51;99615.44;;;10.95;100.00
4085;BME280;2057;50.858;6.572;2023-04-23T00:05:17;99609.09;;;10.82;100.00
4085;BME280;2057;50.858;6.572;2023-04-23T00:07:43;99611.47;;;10.78;100.00
4085;BME280;2057;50.858;6.572;2023-04-23T00:10:09;99614.31;;;10.61;100.00
4085;BME280;2057;50.858;6.572;2023-04-23T00:12:34;99617.03;;;10.67;100.00
4085;BME280;2057;50.858;6.572;2023-04-23T00:15:00;99605.47;;;10.76;100.00
4085;BME280;2057;50.858;6.572;2023-04-23T00:17:29;99610.84;;;10.85;100.00
4085;BME280;2057;50.858;6.572;2023-04-23T00:19:55;99605.44;;;10.74;100.00
4085;BME280;2057;50.858;6.572;2023-04-23T00:22:20;99602.94;;;10.76;100.00
4085;BME280;2057;50.858;6.572;2023-04-23T00:24:46;99608.09;;;10.53;100.00
4085;BME280;2057;50.858;6.572;2023-04-23T00:27:14;99613.22;;;10.55;100.00
4085;BME280;2057;50.858;6.572;2023-04-23T00:29:39;99610.53;;;10.50;100.00
4085;BME280;2057;50.858;6.572;2023-04-23T00:32:05;99609.09;;;10.58;100.00
4085;BME280;2057;50.858;6.572;2023-04-23T00:34:33;99609.22;;;10.61;100.00
4085;BME280;2057;50.858;6.572;2023-04-23T00:37:01;99610.84;;;10.36;100.00
4085;BME280;2057;50.858;6.572;2023-04-23T00:39:30;99614.44;;;10.19;100.00
4085;BME280;2057;50.858;6.572;2023-04-23T00:41:56;99606.00;;;10.18;100.00
4085;BME280;2057;50.858;6.572;2023-04-23T00:44:23;99600.41;;;10.27;100.00
4085;BME280;2057;50.858;6.572;2023-04-23T00:46:48;99588.06;;;10.14;100.00
4085;BME280;2057;50.858;6.572;2023-04-23T00:49:14;99593.16;;;10.14;100.00
4085;BME280;2057;50.858;6.572;2023-04-23T00:51:42;99598.00;;;10.08;100.00
4085;BME280;2057;50.858;6.572;2023-04-23T00:54:07;99587.47;;;9.97;100.00
4085;BME280;2057;50.858;6.572;2023-04-23T00:56:33;99591.78;;;9.99;100.00
4085;BME280;2057;50.858;6.572;2023-04-23T00:58:58;99588.50;;;10.02;100.00
4085;BME280;2057;50.858;6.572;2023-04-23T01:01:26;99580.94;;;10.03;100.00
4085;BME280;2057;50.858;6.572;2023-04-23T01:03:52;99579.16;;;10.01;100.00
4085;BME280;2057;50.858;6.572;2023-04-23T01:06:18;99582.25;;;9.92;100.00
4085;BME280;2057;50.858;6.572;2023-04-23T01:08:44;99582.78;;;9.85;100.00
4085;BME280;2057;50.858;6.572;2023-04-23T01:11:14;99585.28;;;9.83;100.00
4085;BME280;2057;50.858;6.572;2023-04-23T01:13:41;99569.78;;;9.76;100.00
4085;BME280;2057;50.858;6.572;2023-04-23T01:16:06;99581.66;;;9.77;100.00
4085;BME280;2057;50.858;6.572;2023-04-23T01:18:32;99574.56;;;9.68;100.00
4085;BME280;2057;50.858;6.572;2023-04-23T01:20:58;99579.41;;;9.62;100.00
4085;BME280;2057;50.858;6.572;2023-04-23T01:23:23;99578.66;;;9.64;100.00
4085;BME280;2057;50.858;6.572;2023-04-23T01:25:51;99575.03;;;9.57;100.00
4085;BME280;2057;50.858;6.572;2023-04-23T01:28:17;99579.25;;;9.57;100.00
4085;BME280;2057;50.858;6.572;2023-04-23T01:30:42;99576.63;;;9.55;100.00
4085;BME280;2057;50.858;6.572;2023-04-23T01:33:09;99573.88;;;9.49;100.00
4085;BME280;2057;50.858;6.572;2023-04-23T01:35:35;99569.09;;;9.57;100.00
4085;BME280;2057;50.858;6.572;2023-04-23T01:38:02;99573.81;;;9.48;100.00
4085;BME280;2057;50.858;6.572;2023-04-23T01:40:28;99570.22;;;9.42;100.00
4085;BME280;2057;50.858;6.572;2023-04-23T01:42:54;99563.44;;;9.41;100.00
4085;BME280;2057;50.858;6.572;2023-04-23T01:45:20;99568.41;;;9.38;100.00
4085;BME280;2057;50.858;6.572;2023-04-23T01:47:46;99570.00;;;9.36;100.00
4085;BME280;2057;50.858;6.572;2023-04-23T01:50:12;99569.25;;;9.39;100.00
4085;BME280;2057;50.858;6.572;2023-04-23T01:52:39;99571.88;;;9.40;100.00
4085;BME280;2057;50.858;6.572;2023-04-23T01:55:06;99568.00;;;9.28;100.00
4085;BME280;2057;50.858;6.572;2023-04-23T01:57:32;99563.47;;;9.20;100.00
4085;BME280;2057;50.858;6.572;2023-04-23T02:00:08;99565.91;;;9.17;100.00
4085;BME280;2057;50.858;6.572;2023-04-23T02:02:35;99566.50;;;9.12;100.00
4085;BME280;2057;50.858;6.572;2023-04-23T02:05:04;99566.28;;;9.05;100.00
4085;BME280;2057;50.858;6.572;2023-04-23T02:07:34;99566.94;;;9.01;100.00
4085;BME280;2057;50.858;6.572;2023-04-23T02:10:01;99568.72;;;9.04;100.00
4085;BME280;2057;50.858;6.572;2023-04-23T02:12:26;99571.06;;;8.99;100.00
4085;BME280;2057;50.858;6.572;2023-04-23T02:14:52;99569.28;;;8.97;100.00
4085;BME280;2057;50.858;6.572;2023-04-23T02:17:19;99562.72;;;9.02;100.00
4085;BME280;2057;50.858;6.572;2023-04-23T02:19:45;99565.34;;;9.03;100.00
4085;BME280;2057;50.858;6.572;2023-04-23T02:22:11;99564.41;;;9.01;100.00
4085;BME280;2057;50.858;6.572;2023-04-23T02:24:36;99567.63;;;8.97;100.00
4085;BME280;2057;50.858;6.572;2023-04-23T02:27:05;99566.09;;;9.01;100.00
4085;BME280;2057;50.858;6.572;2023-04-23T02:29:30;99564.41;;;9.01;100.00
4085;BME280;2057;50.858;6.572;2023-04-23T02:31:55;99556.00;;;9.02;100.00
4085;BME280;2057;50.858;6.572;2023-04-23T02:34:21;99557.00;;;9.06;100.00
4085;BME280;2057;50.858;6.572;2023-04-23T02:36:46;99561.25;;;9.07;100.00
4085;BME280;2057;50.858;6.572;2023-04-23T02:39:11;99555.09;;;9.00;100.00
4085;BME280;2057;50.858;6.572;2023-04-23T02:41:37;99555.88;;;8.99;100.00
4085;BME280;2057;50.858;6.572;2023-04-23T02:44:02;99553.34;;;8.99;100.00
4085;BME280;2057;50.858;6.572;2023-04-23T02:46:28;99546.81;;;9.04;100.00
4085;BME280;2057;50.858;6.572;2023-04-23T02:48:53;99544.09;;;9.00;100.00
4085;BME280;2057;50.858;6.572;2023-04-23T02:51:18;99548.84;;;8.92;100.00
4085;BME280;2057;50.858;6.572;2023-04-23T02:53:44;99547.31;;;8.95;100.00
4085;BME280;2057;50.858;6.572;2023-04-23T02:56:09;99546.50;;;8.97;100.00
4085;BME280;2057;50.858;6.572;2023-04-23T02:58:34;99547.19;;;8.92;100.00
4085;BME280;2057;50.858;6.572;2023-04-23T03:01:01;99543.13;;;8.96;100.00
4085;BME280;2057;50.858;6.572;2023-04-23T03:08:36;99538.78;;;8.93;100.00
4085;BME280;2057;50.858;6.572;2023-04-23T03:11:01;99534.72;;;8.97;100.00
4085;BME280;2057;50.858;6.572;2023-04-23T03:13:27;99529.81;;;9.02;100.00
4085;BME280;2057;50.858;6.572;2023-04-23T03:15:52;99532.19;;;8.97;100.00
4085;BME280;2057;50.858;6.572;2023-04-23T03:18:18;99535.63;;;8.99;100.00
4085;BME280;2057;50.858;6.572;2023-04-23T03:20:46;99534.25;;;9.07;100.00
4085;BME280;2057;50.858;6.572;2023-04-23T03:23:11;99531.69;;;9.06;100.00
4085;BME280;2057;50.858;6.572;2023-04-23T03:25:37;99534.97;;;9.03;100.00
4085;BME280;2057;50.858;6.572;2023-04-23T03:28:03;99532.31;;;9.00;100.00
4085;BME280;2057;50.858;6.572;2023-04-23T03:30:28;99531.69;;;9.06;100.00
4085;BME280;2057;50.858;6.572;2023-04-23T03:32:55;99527.13;;;8.97;100.00
4085;BME280;2057;50.858;6.572;2023-04-23T03:35:22;99523.94;;;9.03;100.00
4085;BME280;2057;50.858;6.572;2023-04-23T03:37:47;99528.16;;;9.02;100.00
4085;BME280;2057;50.858;6.572;2023-04-23T03:40:13;99523.84;;;9.00;100.00
4085;BME280;2057;50.858;6.572;2023-04-23T03:42:38;99518.00;;;9.01;100.00
4085;BME280;2057;50.858;6.572;2023-04-23T03:45:04;99518.03;;;9.02;100.00
4085;BME280;2057;50.858;6.572;2023-04-23T03:47:30;99522.22;;;9.02;100.00
4085;BME280;2057;50.858;6.572;2023-04-23T03:49:55;99526.38;;;9.00;100.00
4085;BME280;2057;50.858;6.572;2023-04-23T03:52:21;99525.44;;;8.98;100.00
4085;BME280;2057;50.858;6.572;2023-04-23T03:54:46;99526.50;;;9.03;100.00
4085;BME280;2057;50.858;6.572;2023-04-23T03:57:11;99523.34;;;9.08;100.00
4085;BME280;2057;50.858;6.572;2023-04-23T03:59:37;99523.34;;;9.08;100.00
4085;BME280;2057;50.858;6.572;2023-04-23T04:02:05;99517.69;;;9.16;100.00
4085;BME280;2057;50.858;6.572;2023-04-23T04:04:31;99511.25;;;9.24;100.00
4085;BME280;2057;50.858;6.572;2023-04-23T04:06:57;99516.69;;;9.33;100.00
4085;BME280;2057;50.858;6.572;2023-04-23T04:09:24;99515.06;;;9.35;100.00
4085;BME280;2057;50.858;6.572;2023-04-23T04:11:51;99519.56;;;9.42;100.00
4085;BME280;2057;50.858;6.572;2023-04-23T04:14:16;99512.25;;;9.50;100.00
4085;BME280;2057;50.858;6.572;2023-04-23T04:16:42;99518.66;;;9.63;100.00
4085;BME280;2057;50.858;6.572;2023-04-23T04:19:07;99514.16;;;9.56;100.00
4085;BME280;2057;50.858;6.572;2023-04-23T04:21:32;99515.19;;;9.61;100.00
4085;BME280;2057;50.858;6.572;2023-04-23T04:23:59;99512.03;;;9.67;100.00
4085;BME280;2057;50.858;6.572;2023-04-23T04:26:29;99511.44;;;9.74;100.00
4085;BME280;2057;50.858;6.572;2023-04-23T04:28:56;99516.72;;;9.80;100.00
4085;BME280;2057;50.858;6.572;2023-04-23T04:31:22;99516.78;;;9.82;100.00
4085;BME280;2057;50.858;6.572;2023-04-23T04:33:47;99506.56;;;9.80;100.00
4085;BME280;2057;50.858;6.572;2023-04-23T04:36:13;99519.41;;;9.85;100.00
4085;BME280;2057;50.858;6.572;2023-04-23T04:38:39;99512.09;;;9.93;100.00
4085;BME280;2057;50.858;6.572;2023-04-23T04:41:05;99512.59;;;10.07;100.00
4085;BME280;2057;50.858;6.572;2023-04-23T04:43:33;99514.69;;;10.18;100.00
4085;BME280;2057;50.858;6.572;2023-04-23T04:45:59;99526.00;;;10.28;100.00
4085;BME280;2057;50.858;6.572;2023-04-23T04:48:25;99524.59;;;10.36;100.00
4085;BME280;2057;50.858;6.572;2023-04-23T04:50:51;99523.13;;;10.42;100.00
4085;BME280;2057;50.858;6.572;2023-04-23T04:53:16;99536.81;;;10.47;100.00
4085;BME280;2057;50.858;6.572;2023-04-23T04:55:42;99529.31;;;10.50;100.00
4085;BME280;2057;50.858;6.572;2023-04-23T04:58:07;99525.81;;;10.46;100.00
4085;BME280;2057;50.858;6.572;2023-04-23T05:00:32;99529.31;;;10.50;100.00
4085;BME280;2057;50.858;6.572;2023-04-23T05:03:01;99535.31;;;10.52;100.00
4085;BME280;2057;50.858;6.572;2023-04-23T05:05:27;99530.31;;;10.55;100.00
4085;BME280;2057;50.858;6.572;2023-04-23T05:07:52;99528.59;;;10.54;100.00
4085;BME280;2057;50.858;6.572;2023-04-23T05:10:19;99523.06;;;10.66;100.00
4085;BME280;2057;50.858;6.572;2023-04-23T05:12:45;99522.38;;;10.72;100.00
4085;BME280;2057;50.858;6.572;2023-04-23T05:15:12;99524.09;;;10.71;100.00
4085;BME280;2057;50.858;6.572;2023-04-23T05:17:46;99513.16;;;10.74;100.00
4085;BME280;2057;50.858;6.572;2023-04-23T05:20:12;99526.78;;;10.76;100.00
4085;BME280;2057;50.858;6.572;2023-04-23T05:22:41;99519.16;;;10.76;100.00
4085;BME280;2057;50.858;6.572;2023-04-23T05:25:08;99522.69;;;10.81;100.00
4085;BME280;2057;50.858;6.572;2023-04-23T05:27:34;99523.47;;;10.78;100.00
4085;BME280;2057;50.858;6.572;2023-04-23T05:30:01;99522.91;;;10.87;100.00
4085;BME280;2057;50.858;6.572;2023-04-23T05:32:27;99532.09;;;10.83;100.00
4085;BME280;2057;50.858;6.572;2023-04-23T05:34:52;99518.53;;;10.83;100.00
4085;BME280;2057;50.858;6.572;2023-04-23T05:37:18;99527.69;;;10.78;100.00
4085;BME280;2057;50.858;6.572;2023-04-23T05:39:43;99521.72;;;10.77;100.00
4085;BME280;2057;50.858;6.572;2023-04-23T05:42:10;99530.38;;;10.82;100.00
4085;BME280;2057;50.858;6.572;2023-04-23T05:44:35;99535.38;;;10.81;100.00
4085;BME280;2057;50.858;6.572;2023-04-23T05:47:03;99529.66;;;10.87;100.00
4085;BME280;2057;50.858;6.572;2023-04-23T05:49:29;99531.38;;;10.88;100.00
4085;BME280;2057;50.858;6.572;2023-04-23T05:51:55;99537.31;;;10.88;100.00
4085;BME280;2057;50.858;6.572;2023-04-23T05:54:22;99532.09;;;10.83;100.00
4085;BME280;2057;50.858;6.572;2023-04-23T05:56:47;99533.28;;;10.95;100.00
4085;BME280;2057;50.858;6.572;2023-04-23T05:59:13;99539.34;;;10.98;100.00
4085;BME280;2057;50.858;6.572;2023-04-23T06:01:38;99538.53;;;10.99;100.00
4085;BME280;2057;50.858;6.572;2023-04-23T06:04:03;99532.00;;;11.08;100.00
4085;BME280;2057;50.858;6.572;2023-04-23T06:06:29;99533.91;;;11.15;100.00
4085;BME280;2057;50.858;6.572;2023-04-23T06:08:55;99531.63;;;11.23;100.00
4085;BME280;2057;50.858;6.572;2023-04-23T06:11:20;99533.31;;;11.22;100.00
4085;BME280;2057;50.858;6.572;2023-04-23T06:13:48;99527.38;;;11.23;100.00
4085;BME280;2057;50.858;6.572;2023-04-23T06:16:14;99528.47;;;11.32;100.00
4085;BME280;2057;50.858;6.572;2023-04-23T06:18:39;99520.25;;;11.39;100.00
4085;BME280;2057;50.858;6.572;2023-04-23T06:21:05;99522.97;;;11.45;100.00
4085;BME280;2057;50.858;6.572;2023-04-23T06:23:31;99529.78;;;11.46;100.00
4085;BME280;2057;50.858;6.572;2023-04-23T06:25:56;99525.78;;;11.54;100.00
4085;BME280;2057;50.858;6.572;2023-04-23T06:33:32;99522.69;;;11.65;100.00
4085;BME280;2057;50.858;6.572;2023-04-23T06:35:58;99518.50;;;11.67;100.00
4085;BME280;2057;50.858;6.572;2023-04-23T06:38:23;99518.50;;;11.67;100.00
4085;BME280;2057;50.858;6.572;2023-04-23T06:40:49;99514.50;;;11.75;100.00
4085;BME280;2057;50.858;6.572;2023-04-23T06:43:14;99513.09;;;11.85;100.00
4085;BME280;2057;50.858;6.572;2023-04-23T06:45:40;99508.97;;;11.90;100.00
4085;BME280;2057;50.858;6.572;2023-04-23T06:48:05;99509.84;;;11.90;100.00
4085;BME280;2057;50.858;6.572;2023-04-23T06:50:31;99502.38;;;11.97;100.00
4085;BME280;2057;50.858;6.572;2023-04-23T06:52:56;99507.66;;;12.03;100.00
4085;BME280;2057;50.858;6.572;2023-04-23T06:55:22;99506.19;;;12.11;100.00
4085;BME280;2057;50.858;6.572;2023-04-23T06:57:53;99505.63;;;12.21;100.00
4085;BME280;2057;50.858;6.572;2023-04-23T07:00:19;99501.47;;;12.25;100.00
4085;BME280;2057;50.858;6.572;2023-04-23T07:02:45;99499.06;;;12.31;100.00
4085;BME280;2057;50.858;6.572;2023-04-23T07:05:11;99497.59;;;12.39;100.00
4085;BME280;2057;50.858;6.572;2023-04-23T07:07:39;99503.66;;;12.45;100.00
4085;BME280;2057;50.858;6.572;2023-04-23T07:10:08;99503.00;;;12.53;100.00
4085;BME280;2057;50.858;6.572;2023-04-23T07:12:34;99505.50;;;12.50;100.00
4085;BME280;2057;50.858;6.572;2023-04-23T07:15:03;99495.59;;;12.63;100.00
4085;BME280;2057;50.858;6.572;2023-04-23T07:17:28;99494.91;;;12.68;100.00
4085;BME280;2057;50.858;6.572;2023-04-23T07:19:53;99490.97;;;12.81;100.00
4085;BME280;2057;50.858;6.572;2023-04-23T07:22:19;99485.03;;;12.82;100.00
4085;BME280;2057;50.858;6.572;2023-04-23T07:24:44;99481.13;;;12.97;100.00
4085;BME280;2057;50.858;6.572;2023-04-23T07:27:10;99476.78;;;12.91;100.00
4085;BME280;2057;50.858;6.572;2023-04-23T07:29:35;99486.22;;;12.97;100.00
4085;BME280;2057;50.858;6.572;2023-04-23T07:32:01;99482.81;;;12.96;100.00
4085;BME280;2057;50.858;6.572;2023-04-23T07:34:26;99487.19;;;13.00;100.00
4085;BME280;2057;50.858;6.572;2023-04-23T07:36:54;99481.28;;;13.03;100.00
4085;BME280;2057;50.858;6.572;2023-04-23T07:39:20;99480.34;;;12.99;100.00
4085;BME280;2057;50.858;6.572;2023-04-23T07:41:46;99477.00;;;13.02;100.00
4085;BME280;2057;50.858;6.572;2023-04-23T07:44:11;99481.00;;;12.92;100.00
4085;BME280;2057;50.858;6.572;2023-04-23T07:46:36;99481.97;;;12.96;100.00
4085;BME280;2057;50.858;6.572;2023-04-23T07:49:02;99484.41;;;12.91;100.00
4085;BME280;2057;50.858;6.572;2023-04-23T07:51:27;99481.13;;;12.97;100.00
4085;BME280;2057;50.858;6.572;2023-04-23T07:53:53;99482.03;;;12.99;100.00
4085;BME280;2057;50.858;6.572;2023-04-23T07:56:19;99474.59;;;13.08;100.00
4085;BME280;2057;50.858;6.572;2023-04-23T07:58:46;99466.13;;;13.09;100.00
4085;BME280;2057;50.858;6.572;2023-04-23T08:01:11;99468.09;;;13.23;100.00
4085;BME280;2057;50.858;6.572;2023-04-23T08:03:36;99471.34;;;13.54;98.65
4085;BME280;2057;50.858;6.572;2023-04-23T08:06:02;99474.72;;;13.53;97.05
4085;BME280;2057;50.858;6.572;2023-04-23T08:08:28;99467.28;;;13.63;96.78
4085;BME280;2057;50.858;6.572;2023-04-23T08:10:54;99465.81;;;13.76;97.86
4085;BME280;2057;50.858;6.572;2023-04-23T08:13:19;99466.00;;;13.86;97.14
4085;BME280;2057;50.858;6.572;2023-04-23T08:15:45;99464.63;;;14.03;95.06
4085;BME280;2057;50.858;6.572;2023-04-23T08:18:10;99479.00;;;13.98;95.59
4085;BME280;2057;50.858;6.572;2023-04-23T08:20:35;99463.78;;;14.03;95.61
4085;BME280;2057;50.858;6.572;2023-04-23T08:23:01;99454.72;;;14.20;95.76
4085;BME280;2057;50.858;6.572;2023-04-23T08:25:26;99449.72;;;14.28;93.33
4085;BME280;2057;50.858;6.572;2023-04-23T08:27:51;99448.16;;;14.36;93.12
4085;BME280;2057;50.858;6.572;2023-04-23T08:30:17;99444.09;;;14.46;91.20
4085;BME280;2057;50.858;6.572;2023-04-23T08:32:42;99430.72;;;14.63;91.40
4085;BME280;2057;50.858;6.572;2023-04-23T08:35:10;99432.63;;;14.74;89.93
4085;BME280;2057;50.858;6.572;2023-04-23T08:37:35;99434.44;;;14.83;89.32
4085;BME280;2057;50.858;6.572;2023-04-23T08:40:03;99432.97;;;14.98;90.22
4085;BME280;2057;50.858;6.572;2023-04-23T08:45:24;99436.53;;;15.12;86.14
4085;BME280;2057;50.858;6.572;2023-04-23T08:47:57;99441.72;;;15.18;85.53
4085;BME280;2057;50.858;6.572;2023-04-23T08:50:24;99438.44;;;15.26;86.06
4085;BME280;2057;50.858;6.572;2023-04-23T08:52:52;99431.75;;;15.37;85.10
4085;BME280;2057;50.858;6.572;2023-04-23T08:55:18;99433.47;;;15.38;84.06
4085;BME280;2057;50.858;6.572;2023-04-23T08:57:45;99440.97;;;15.24;84.58
4085;BME280;2057;50.858;6.572;2023-04-23T09:00:13;99437.28;;;15.03;82.95
4085;BME280;2057;50.858;6.572;2023-04-23T09:02:40;99440.63;;;14.98;84.90
4085;BME280;2057;50.858;6.572;2023-04-23T09:05:06;99450.94;;;15.05;85.42
4085;BME280;2057;50.858;6.572;2023-04-23T09:07:33;99443.38;;;15.12;85.13
4085;BME280;2057;50.858;6.572;2023-04-23T09:10:00;99440.88;;;15.18;83.24
4085;BME280;2057;50.858;6.572;2023-04-23T09:12:26;99430.47;;;15.05;82.26
4085;BME280;2057;50.858;6.572;2023-04-23T09:14:51;99435.59;;;15.05;81.49
4085;BME280;2057;50.858;6.572;2023-04-23T09:17:17;99436.47;;;15.06;82.17
4085;BME280;2057;50.858;6.572;2023-04-23T09:19:44;99435.91;;;15.27;82.57
4085;BME280;2057;50.858;6.572;2023-04-23T09:22:10;99428.34;;;15.38;80.56
4085;BME280;2057;50.858;6.572;2023-04-23T09:24:41;99428.56;;;15.57;79.08
4085;BME280;2057;50.858;6.572;2023-04-23T09:27:07;99424.19;;;15.48;77.76
4085;BME280;2057;50.858;6.572;2023-04-23T09:29:32;99430.91;;;15.40;78.85
4085;BME280;2057;50.858;6.572;2023-04-23T09:32:08;99424.91;;;15.34;79.02
4085;BME280;2057;50.858;6.572;2023-04-23T09:34:37;99428.19;;;15.24;79.14
4085;BME280;2057;50.858;6.572;2023-04-23T09:37:04;99413.66;;;15.20;77.47
4085;BME280;2057;50.858;6.572;2023-04-23T09:39:32;99411.22;;;15.32;79.71
4085;BME280;2057;50.858;6.572;2023-04-23T09:42:02;99407.84;;;15.35;78.10
4085;BME280;2057;50.858;6.572;2023-04-23T09:44:31;99411.28;;;15.37;75.35
4085;BME280;2057;50.858;6.572;2023-04-23T09:47:04;99408.88;;;15.49;80.36
4085;BME280;2057;50.858;6.572;2023-04-23T09:49:31;99409.56;;;15.34;77.79
4085;BME280;2057;50.858;6.572;2023-04-23T09:52:04;99413.22;;;15.58;80.35
4085;BME280;2057;50.858;6.572;2023-04-23T09:54:30;99408.88;;;15.51;78.42
4085;BME280;2057;50.858;6.572;2023-04-23T09:56:57;99410.59;;;15.52;77.58
4085;BME280;2057;50.858;6.572;2023-04-23T09:59:32;99405.75;;;15.78;78.31
4085;BME280;2057;50.858;6.572;2023-04-23T10:02:01;99407.72;;;16.03;75.52
4085;BME280;2057;50.858;6.572;2023-04-23T10:04:27;99399.25;;;16.08;70.98
4085;BME280;2057;50.858;6.572;2023-04-23T10:07:03;99397.75;;;16.34;73.12
4085;BME280;2057;50.858;6.572;2023-04-23T10:09:32;99395.19;;;16.34;69.93
4085;BME280;2057;50.858;6.572;2023-04-23T10:12:00;99395.25;;;16.41;72.24
4085;BME280;2057;50.858;6.572;2023-04-23T10:14:29;99395.00;;;16.13;71.10
4085;BME280;2057;50.858;6.572;2023-04-23T10:16:59;99399.06;;;15.88;72.94
4085;BME280;2057;50.858;6.572;2023-04-23T10:19:26;99402.34;;;15.78;74.77
4085;BME280;2057;50.858;6.572;2023-04-23T10:21:53;99402.34;;;15.78;73.48
4085;BME280;2057;50.858;6.572;2023-04-23T10:24:22;99394.66;;;15.78;72.18
4085;BME280;2057;50.858;6.572;2023-04-23T10:26:49;99399.75;;;15.72;71.73
4085;BME280;2057;50.858;6.572;2023-04-23T10:29:16;99388.66;;;15.73;71.19
4085;BME280;2057;50.858;6.572;2023-04-23T10:31:45;99394.72;;;15.82;72.27
4085;BME280;2057;50.858;6.572;2023-04-23T10:34:11;99392.31;;;15.96;74.88
4085;BME280;2057;50.858;6.572;2023-04-23T10:36:37;99393.16;;;15.95;70.08
4085;BME280;2057;50.858;6.572;2023-04-23T10:39:03;99388.94;;;16.00;68.68
4085;BME280;2057;50.858;6.572;2023-04-23T10:41:37;99389.00;;;16.07;70.26
4085;BME280;2057;50.858;6.572;2023-04-23T10:44:04;99381.38;;;16.14;67.56
4085;BME280;2057;50.858;6.572;2023-04-23T10:46:31;99370.34;;;16.23;67.81
4085;BME280;2057;50.858;6.572;2023-04-23T10:49:13;99369.63;;;16.41;66.10
4085;BME280;2057;50.858;6.572;2023-04-23T10:51:39;99368.78;;;16.42;67.58
4085;BME280;2057;50.858;6.572;2023-04-23T10:54:07;99361.00;;;16.25;66.32
4085;BME280;2057;50.858;6.572;2023-04-23T10:56:39;99358.38;;;16.19;70.03
4085;BME280;2057;50.858;6.572;2023-04-23T10:59:26;99361.69;;;16.06;69.27
4085;BME280;2057;50.858;6.572;2023-04-23T11:01:55;99360.69;;;15.87;65.50
4085;BME280;2057;50.858;6.572;2023-04-23T11:04:27;99362.22;;;15.75;64.11
4085;BME280;2057;50.858;6.572;2023-04-23T11:06:54;99359.59;;;15.64;67.81
4085;BME280;2057;50.858;6.572;2023-04-23T11:11:54;99352.72;;;15.60;68.45
4085;BME280;2057;50.858;6.572;2023-04-23T11:14:19;99350.31;;;15.79;66.71
4085;BME280;2057;50.858;6.572;2023-04-23T11:16:47;99349.59;;;15.92;69.80
4085;BME280;2057;50.858;6.572;2023-04-23T11:19:12;99343.72;;;16.03;70.87
4085;BME280;2057;50.858;6.572;2023-04-23T11:24:35;99341.19;;;16.06;71.32
4085;BME280;2057;50.858;6.572;2023-04-23T11:27:05;99335.38;;;16.25;71.86
4085;BME280;2057;50.858;6.572;2023-04-23T11:29:31;99334.50;;;16.25;69.81
4085;BME280;2057;50.858;6.572;2023-04-23T11:31:56;99331.94;;;16.25;68.94
4085;BME280;2057;50.858;6.572;2023-04-23T11:34:22;99330.25;;;16.28;69.66
4085;BME280;2057;50.858;6.572;2023-04-23T11:36:51;99318.25;;;16.21;65.65
4085;BME280;2057;50.858;6.572;2023-04-23T11:39:20;99312.28;;;16.22;65.65
4085;BME280;2057;50.858;6.572;2023-04-23T11:41:48;99315.72;;;16.26;66.26
4085;BME280;2057;50.858;6.572;2023-04-23T11:44:15;99303.03;;;16.40;65.96
4085;BME280;2057;50.858;6.572;2023-04-23T11:46:40;99307.44;;;16.66;66.73
4085;BME280;2057;50.858;6.572;2023-04-23T11:49:06;99300.72;;;16.94;67.45
4085;BME280;2057;50.858;6.572;2023-04-23T11:51:33;99299.91;;;16.98;64.36
4085;BME280;2057;50.858;6.572;2023-04-23T11:54:02;99289.66;;;17.06;62.96
4085;BME280;2057;50.858;6.572;2023-04-23T11:56:30;99285.41;;;17.08;64.23
4085;BME280;2057;50.858;6.572;2023-04-23T11:59:01;99276.84;;;17.17;64.09
4085;BME280;2057;50.858;6.572;2023-04-23T12:04:12;99274.31;;;17.26;61.73
4085;BME280;2057;50.858;6.572;2023-04-23T12:06:39;99257.25;;;17.53;62.21
4085;BME280;2057;50.858;6.572;2023-04-23T12:09:05;99252.09;;;17.28;61.09
4085;BME280;2057;50.858;6.572;2023-04-23T12:11:34;99252.06;;;17.11;62.00
4085;BME280;2057;50.858;6.572;2023-04-23T12:14:00;99249.53;;;17.23;63.10
4085;BME280;2057;50.858;6.572;2023-04-23T12:19:00;99237.53;;;17.16;62.46
4085;BME280;2057;50.858;6.572;2023-04-23T12:21:26;99240.13;;;17.21;64.72
4085;BME280;2057;50.858;6.572;2023-04-23T12:23:54;99232.44;;;17.19;64.15
4085;BME280;2057;50.858;6.572;2023-04-23T12:26:20;99230.72;;;17.26;63.69
4085;BME280;2057;50.858;6.572;2023-04-23T12:31:24;99230.69;;;17.21;64.49
4085;BME280;2057;50.858;6.572;2023-04-23T12:34:06;99226.44;;;17.22;63.46
4085;BME280;2057;50.858;6.572;2023-04-23T12:36:33;99213.59;;;17.08;63.90
4085;BME280;2057;50.858;6.572;2023-04-23T12:41:45;99213.56;;;16.96;62.10
4085;BME280;2057;50.858;6.572;2023-04-23T12:44:10;99217.78;;;16.92;63.63
4085;BME280;2057;50.858;6.572;2023-04-23T12:46:36;99201.56;;;16.81;63.30
4085;BME280;2057;50.858;6.572;2023-04-23T12:49:01;99200.69;;;16.80;62.57
4085;BME280;2057;50.858;6.572;2023-04-23T12:51:26;99195.56;;;16.80;61.91
4085;BME280;2057;50.858;6.572;2023-04-23T12:53:52;99193.84;;;16.88;63.72
4085;BME280;2057;50.858;6.572;2023-04-23T12:56:19;99192.13;;;16.83;63.72
4085;BME280;2057;50.858;6.572;2023-04-23T12:58:45;99201.53;;;16.76;61.31
4085;BME280;2057;50.858;6.572;2023-04-23T13:01:10;99193.84;;;16.76;62.15
4085;BME280;2057;50.858;6.572;2023-04-23T13:03:36;99187.81;;;16.61;62.16
4085;BME280;2057;50.858;6.572;2023-04-23T13:06:02;99179.28;;;16.66;62.25
4085;BME280;2057;50.858;6.572;2023-04-23T13:08:27;99186.09;;;16.65;63.87
4085;BME280;2057;50.858;6.572;2023-04-23T13:10:53;99172.44;;;16.65;64.13
4085;BME280;2057;50.858;6.572;2023-04-23T13:13:18;99177.63;;;16.78;64.75
4085;BME280;2057;50.858;6.572;2023-04-23T13:15:43;99175.06;;;16.83;65.34
4085;BME280;2057;50.858;6.572;2023-04-23T13:18:09;99167.38;;;16.77;65.35
4085;BME280;2057;50.858;6.572;2023-04-23T13:20:34;99167.38;;;16.77;66.43
4085;BME280;2057;50.858;6.572;2023-04-23T13:22:59;99161.34;;;16.67;67.37
4085;BME280;2057;50.858;6.572;2023-04-23T13:25:27;99168.16;;;16.65;67.36
4085;BME280;2057;50.858;6.572;2023-04-23T13:27:52;99147.66;;;16.59;66.94
4085;BME280;2057;50.858;6.572;2023-04-23T13:30:17;99145.09;;;16.57;64.93
4085;BME280;2057;50.858;6.572;2023-04-23T13:32:43;99141.66;;;16.49;67.23
4085;BME280;2057;50.858;6.572;2023-04-23T13:35:08;99138.19;;;16.35;66.17
4085;BME280;2057;50.858;6.572;2023-04-23T13:37:34;99134.78;;;16.39;65.40
4085;BME280;2057;50.858;6.572;2023-04-23T13:40:00;99121.16;;;16.47;67.97
4085;BME280;2057;50.858;6.572;2023-04-23T13:42:25;99122.00;;;16.39;69.33